sensor_id;sensor_type;location;lat;lon;timestamp;temperature;humidity
45207;DHT22;30950;53.086;21.576;2023-03-22T00:01:15;2.20;99.90
45207;DHT22;30950;53.086;21.576;2023-03-22T00:03:43;2.60;99.90
45207;DHT22;30950;53.086;21.576;2023-03-22T00:06:12;2.20;99.90
45207;DHT22;30950;53.086;21.576;2023-03-22T00:08:39;2.20;99.90
45207;DHT22;30950;53.086;21.576;2023-03-22T00:11:06;2.20;99.90
45207;DHT22;30950;53.086;21.576;2023-03-22T00:13:34;2.20;99.90
45207;DHT22;30950;53.086;21.576;2023-03-22T00:16:04;2.10;99.90
45207;DHT22;30950;53.086;21.576;2023-03-22T00:18:31;2.10;99.90
45207;DHT22;30950;53.086;21.576;2023-03-22T00:20:59;2.10;99.90
45207;DHT22;30950;53.086;21.576;2023-03-22T00:23:27;2.10;99.90
45207;DHT22;30950;53.086;21.576;2023-03-22T00:25:55;2.00;99.90
45207;DHT22;30950;53.086;21.576;2023-03-22T00:28:23;2.00;99.90
45207;DHT22;30950;53.086;21.576;2023-03-22T00:30:56;2.00;99.90
45207;DHT22;30950;53.086;21.576;2023-03-22T00:33:27;2.00;99.90
45207;DHT22;30950;53.086;21.576;2023-03-22T00:36:13;1.90;99.90
45207;DHT22;30950;53.086;21.576;2023-03-22T00:38:40;2.00;99.90
45207;DHT22;30950;53.086;21.576;2023-03-22T00:41:15;1.90;99.90
45207;DHT22;30950;53.086;21.576;2023-03-22T00:43:44;1.90;99.90
45207;DHT22;30950;53.086;21.576;2023-03-22T00:46:14;1.90;99.90
45207;DHT22;30950;53.086;21.576;2023-03-22T00:48:42;1.90;99.90
45207;DHT22;30950;53.086;21.576;2023-03-22T00:51:10;1.80;99.90
45207;DHT22;30950;53.086;21.576;2023-03-22T00:53:38;1.90;99.90
45207;DHT22;30950;53.086;21.576;2023-03-22T00:56:10;1.90;99.90
45207;DHT22;30950;53.086;21.576;2023-03-22T00:59:12;1.80;99.90
45207;DHT22;30950;53.086;21.576;2023-03-22T01:01:41;1.80;99.90
45207;DHT22;30950;53.086;21.576;2023-03-22T01:04:10;1.80;99.90
45207;DHT22;30950;53.086;21.576;2023-03-22T01:06:41;1.80;99.90
45207;DHT22;30950;53.086;21.576;2023-03-22T01:09:09;1.80;99.90
45207;DHT22;30950;53.086;21.576;2023-03-22T01:11:42;1.80;99.90
45207;DHT22;30950;53.086;21.576;2023-03-22T01:14:09;1.80;99.90
45207;DHT22;30950;53.086;21.576;2023-03-22T01:16:40;1.80;99.90
45207;DHT22;30950;53.086;21.576;2023-03-22T01:19:07;1.80;99.90
45207;DHT22;30950;53.086;21.576;2023-03-22T01:21:35;1.80;99.90
45207;DHT22;30950;53.086;21.576;2023-03-22T01:24:03;1.80;99.90
45207;DHT22;30950;53.086;21.576;2023-03-22T01:26:30;1.80;99.90
45207;DHT22;30950;53.086;21.576;2023-03-22T01:28:57;1.80;99.90
45207;DHT22;30950;53.086;21.576;2023-03-22T01:31:25;1.80;99.90
45207;DHT22;30950;53.086;21.576;2023-03-22T01:33:52;1.90;99.90
45207;DHT22;30950;53.086;21.576;2023-03-22T01:36:21;1.90;99.90
45207;DHT22;30950;53.086;21.576;2023-03-22T01:38:48;2.10;99.90
45207;DHT22;30950;53.086;21.576;2023-03-22T01:41:16;2.00;99.90
45207;DHT22;30950;53.086;21.576;2023-03-22T01:43:44;2.10;99.90
45207;DHT22;30950;53.086;21.576;2023-03-22T01:46:12;2.10;99.90
45207;DHT22;30950;53.086;21.576;2023-03-22T01:48:41;2.10;99.90
45207;DHT22;30950;53.086;21.576;2023-03-22T01:51:17;2.20;99.90
45207;DHT22;30950;53.086;21.576;2023-03-22T01:54:09;2.30;99.90
45207;DHT22;30950;53.086;21.576;2023-03-22T01:56:39;2.30;99.90
45207;DHT22;30950;53.086;21.576;2023-03-22T01:59:13;2.40;99.90
45207;DHT22;30950;53.086;21.576;2023-03-22T02:02:00;2.40;99.90
45207;DHT22;30950;53.086;21.576;2023-03-22T02:04:33;2.50;99.90
45207;DHT22;30950;53.086;21.576;2023-03-22T02:07:06;2.60;99.90
45207;DHT22;30950;53.086;21.576;2023-03-22T02:09:38;4.10;99.90
45207;DHT22;30950;53.086;21.576;2023-03-22T02:12:15;2.70;99.90
45207;DHT22;30950;53.086;21.576;2023-03-22T02:15:21;2.80;99.90
45207;DHT22;30950;53.086;21.576;2023-03-22T02:38:18;3.20;99.90
45207;DHT22;30950;53.086;21.576;2023-03-22T02:43:41;3.20;99.90
45207;DHT22;30950;53.086;21.576;2023-03-22T02:46:22;3.20;99.90
45207;DHT22;30950;53.086;21.576;2023-03-22T02:49:22;3.20;99.90
45207;DHT22;30950;53.086;21.576;2023-03-22T02:55:23;3.20;99.90
45207;DHT22;30950;53.086;21.576;2023-03-22T02:58:05;3.20;99.90
45207;DHT22;30950;53.086;21.576;2023-03-22T03:00:34;3.20;99.90
45207;DHT22;30950;53.086;21.576;2023-03-22T03:03:07;3.20;99.90
45207;DHT22;30950;53.086;21.576;2023-03-22T03:05:44;3.20;99.90
45207;DHT22;30950;53.086;21.576;2023-03-22T03:08:14;3.20;99.90
45207;DHT22;30950;53.086;21.576;2023-03-22T03:10:44;3.20;99.90
45207;DHT22;30950;53.086;21.576;2023-03-22T03:13:13;3.20;99.90
45207;DHT22;30950;53.086;21.576;2023-03-22T03:15:42;3.10;99.90
45207;DHT22;30950;53.086;21.576;2023-03-22T03:23:54;3.10;99.90
45207;DHT22;30950;53.086;21.576;2023-03-22T03:32:15;3.10;99.90
45207;DHT22;30950;53.086;21.576;2023-03-22T03:34:50;3.10;99.90
45207;DHT22;30950;53.086;21.576;2023-03-22T03:37:25;3.00;99.90
45207;DHT22;30950;53.086;21.576;2023-03-22T03:42:29;3.00;99.90
45207;DHT22;30950;53.086;21.576;2023-03-22T03:44:58;3.00;99.90
45207;DHT22;30950;53.086;21.576;2023-03-22T03:47:27;3.00;99.90
45207;DHT22;30950;53.086;21.576;2023-03-22T03:49:55;3.00;99.90
45207;DHT22;30950;53.086;21.576;2023-03-22T03:52:22;3.00;99.90
45207;DHT22;30950;53.086;21.576;2023-03-22T03:54:52;3.00;99.90
45207;DHT22;30950;53.086;21.576;2023-03-22T03:57:27;3.00;99.90
45207;DHT22;30950;53.086;21.576;2023-03-22T03:59:54;2.90;99.90
45207;DHT22;30950;53.086;21.576;2023-03-22T04:02:43;2.90;99.90
45207;DHT22;30950;53.086;21.576;2023-03-22T04:05:24;2.90;99.90
45207;DHT22;30950;53.086;21.576;2023-03-22T04:07:51;2.90;99.90
45207;DHT22;30950;53.086;21.576;2023-03-22T04:10:19;2.80;99.90
45207;DHT22;30950;53.086;21.576;2023-03-22T04:12:46;2.90;99.90
45207;DHT22;30950;53.086;21.576;2023-03-22T04:15:17;2.80;99.90
45207;DHT22;30950;53.086;21.576;2023-03-22T04:17:49;2.80;99.90
45207;DHT22;30950;53.086;21.576;2023-03-22T04:20:17;2.80;99.90
45207;DHT22;30950;53.086;21.576;2023-03-22T04:22:45;2.90;99.90
45207;DHT22;30950;53.086;21.576;2023-03-22T04:25:15;2.90;99.90
45207;DHT22;30950;53.086;21.576;2023-03-22T04:27:53;2.90;99.90
45207;DHT22;30950;53.086;21.576;2023-03-22T04:30:22;2.90;99.90
45207;DHT22;30950;53.086;21.576;2023-03-22T04:32:59;2.90;99.90
45207;DHT22;30950;53.086;21.576;2023-03-22T04:35:43;2.90;99.90
45207;DHT22;30950;53.086;21.576;2023-03-22T04:38:13;2.90;99.90
45207;DHT22;30950;53.086;21.576;2023-03-22T04:40:41;2.90;99.90
45207;DHT22;30950;53.086;21.576;2023-03-22T04:43:19;2.90;99.90
45207;DHT22;30950;53.086;21.576;2023-03-22T04:46:00;2.90;99.90
45207;DHT22;30950;53.086;21.576;2023-03-22T04:48:37;2.90;99.90
45207;DHT22;30950;53.086;21.576;2023-03-22T04:51:08;2.90;99.90
45207;DHT22;30950;53.086;21.576;2023-03-22T04:53:41;2.90;99.90
45207;DHT22;30950;53.086;21.576;2023-03-22T04:56:12;2.90;99.90
45207;DHT22;30950;53.086;21.576;2023-03-22T04:58:42;3.00;99.90
45207;DHT22;30950;53.086;21.576;2023-03-22T05:01:11;3.00;99.90
45207;DHT22;30950;53.086;21.576;2023-03-22T05:03:42;3.00;99.90
45207;DHT22;30950;53.086;21.576;2023-03-22T05:06:12;3.00;99.90
45207;DHT22;30950;53.086;21.576;2023-03-22T05:08:54;3.00;99.90
45207;DHT22;30950;53.086;21.576;2023-03-22T05:11:23;3.00;99.90
45207;DHT22;30950;53.086;21.576;2023-03-22T05:14:10;3.10;99.90
45207;DHT22;30950;53.086;21.576;2023-03-22T05:16:39;3.10;99.90
45207;DHT22;30950;53.086;21.576;2023-03-22T05:19:08;3.10;99.90
45207;DHT22;30950;53.086;21.576;2023-03-22T05:21:44;3.20;99.90
45207;DHT22;30950;53.086;21.576;2023-03-22T05:24:11;3.20;99.90
45207;DHT22;30950;53.086;21.576;2023-03-22T05:26:40;3.20;99.90
45207;DHT22;30950;53.086;21.576;2023-03-22T05:29:11;3.20;99.90
45207;DHT22;30950;53.086;21.576;2023-03-22T05:31:58;3.20;99.90
45207;DHT22;30950;53.086;21.576;2023-03-22T05:34:25;3.30;99.90
45207;DHT22;30950;53.086;21.576;2023-03-22T05:37:10;3.30;99.90
45207;DHT22;30950;53.086;21.576;2023-03-22T05:39:47;3.40;99.90
45207;DHT22;30950;53.086;21.576;2023-03-22T05:42:15;3.40;99.90
45207;DHT22;30950;53.086;21.576;2023-03-22T05:44:42;3.40;99.90
45207;DHT22;30950;53.086;21.576;2023-03-22T05:47:12;3.50;99.90
45207;DHT22;30950;53.086;21.576;2023-03-22T05:50:08;3.50;99.90
45207;DHT22;30950;53.086;21.576;2023-03-22T05:52:35;3.60;99.90
45207;DHT22;30950;53.086;21.576;2023-03-22T05:55:16;3.60;99.90
45207;DHT22;30950;53.086;21.576;2023-03-22T05:57:45;3.70;99.90
45207;DHT22;30950;53.086;21.576;2023-03-22T06:00:14;3.80;99.90
45207;DHT22;30950;53.086;21.576;2023-03-22T06:03:02;3.80;99.90
45207;DHT22;30950;53.086;21.576;2023-03-22T06:05:37;3.90;99.90
45207;DHT22;30950;53.086;21.576;2023-03-22T06:08:06;4.00;99.90
45207;DHT22;30950;53.086;21.576;2023-03-22T06:10:33;4.10;99.90
45207;DHT22;30950;53.086;21.576;2023-03-22T06:13:01;4.10;99.90
45207;DHT22;30950;53.086;21.576;2023-03-22T06:15:31;4.20;99.90
45207;DHT22;30950;53.086;21.576;2023-03-22T06:18:10;4.20;99.90
45207;DHT22;30950;53.086;21.576;2023-03-22T06:20:41;4.30;99.90
45207;DHT22;30950;53.086;21.576;2023-03-22T06:23:15;4.40;99.90
45207;DHT22;30950;53.086;21.576;2023-03-22T06:25:45;4.50;99.90
45207;DHT22;30950;53.086;21.576;2023-03-22T06:28:14;5.10;99.90
45207;DHT22;30950;53.086;21.576;2023-03-22T06:30:48;4.60;99.90
45207;DHT22;30950;53.086;21.576;2023-03-22T06:33:34;4.70;99.90
45207;DHT22;30950;53.086;21.576;2023-03-22T06:36:09;5.20;99.90
45207;DHT22;30950;53.086;21.576;2023-03-22T06:38:57;5.00;99.90
45207;DHT22;30950;53.086;21.576;2023-03-22T06:41:26;5.10;99.90
45207;DHT22;30950;53.086;21.576;2023-03-22T06:43:54;5.20;99.90
45207;DHT22;30950;53.086;21.576;2023-03-22T06:46:36;5.30;99.90
45207;DHT22;30950;53.086;21.576;2023-03-22T06:49:11;5.50;99.90
45207;DHT22;30950;53.086;21.576;2023-03-22T06:51:39;5.60;99.90
45207;DHT22;30950;53.086;21.576;2023-03-22T06:54:07;5.70;99.90
45207;DHT22;30950;53.086;21.576;2023-03-22T06:56:34;5.80;99.90
45207;DHT22;30950;53.086;21.576;2023-03-22T06:59:02;5.90;99.90
45207;DHT22;30950;53.086;21.576;2023-03-22T07:01:29;6.10;99.90
45207;DHT22;30950;53.086;21.576;2023-03-22T07:03:57;6.20;99.90
45207;DHT22;30950;53.086;21.576;2023-03-22T07:06:25;6.30;99.90
45207;DHT22;30950;53.086;21.576;2023-03-22T07:08:53;6.40;99.90
45207;DHT22;30950;53.086;21.576;2023-03-22T07:11:26;6.60;99.90
45207;DHT22;30950;53.086;21.576;2023-03-22T07:14:02;6.70;99.90
45207;DHT22;30950;53.086;21.576;2023-03-22T07:17:01;6.80;99.90
45207;DHT22;30950;53.086;21.576;2023-03-22T07:19:29;7.00;99.90
45207;DHT22;30950;53.086;21.576;2023-03-22T07:22:02;7.10;99.90
45207;DHT22;30950;53.086;21.576;2023-03-22T07:24:31;7.20;99.90
45207;DHT22;30950;53.086;21.576;2023-03-22T07:27:00;7.40;99.90
45207;DHT22;30950;53.086;21.576;2023-03-22T07:29:28;7.50;99.90
45207;DHT22;30950;53.086;21.576;2023-03-22T07:31:56;7.60;99.90
45207;DHT22;30950;53.086;21.576;2023-03-22T07:34:29;7.70;99.90
45207;DHT22;30950;53.086;21.576;2023-03-22T07:37:02;7.80;99.90
45207;DHT22;30950;53.086;21.576;2023-03-22T07:39:30;7.90;99.90
45207;DHT22;30950;53.086;21.576;2023-03-22T07:41:58;8.00;99.90
45207;DHT22;30950;53.086;21.576;2023-03-22T07:44:46;8.20;99.90
45207;DHT22;30950;53.086;21.576;2023-03-22T07:47:13;8.30;99.90
45207;DHT22;30950;53.086;21.576;2023-03-22T07:49:55;8.50;99.90
45207;DHT22;30950;53.086;21.576;2023-03-22T07:52:29;8.60;99.90
45207;DHT22;30950;53.086;21.576;2023-03-22T07:54:57;8.90;99.90
45207;DHT22;30950;53.086;21.576;2023-03-22T07:57:24;9.40;99.90
45207;DHT22;30950;53.086;21.576;2023-03-22T07:59:55;8.90;99.90
45207;DHT22;30950;53.086;21.576;2023-03-22T08:02:29;8.90;99.90
45207;DHT22;30950;53.086;21.576;2023-03-22T08:04:58;9.00;99.90
45207;DHT22;30950;53.086;21.576;2023-03-22T08:07:37;9.70;99.90
45207;DHT22;30950;53.086;21.576;2023-03-22T08:10:05;9.30;99.90
45207;DHT22;30950;53.086;21.576;2023-03-22T08:12:34;9.30;99.90
45207;DHT22;30950;53.086;21.576;2023-03-22T08:15:10;9.80;99.90
45207;DHT22;30950;53.086;21.576;2023-03-22T08:17:38;9.60;99.90
45207;DHT22;30950;53.086;21.576;2023-03-22T08:20:10;9.70;99.90
45207;DHT22;30950;53.086;21.576;2023-03-22T08:22:50;9.80;99.90
45207;DHT22;30950;53.086;21.576;2023-03-22T08:25:26;9.70;99.90
45207;DHT22;30950;53.086;21.576;2023-03-22T08:28:02;9.90;99.90
45207;DHT22;30950;53.086;21.576;2023-03-22T08:30:29;10.00;99.90
45207;DHT22;30950;53.086;21.576;2023-03-22T08:32:57;10.10;99.90
45207;DHT22;30950;53.086;21.576;2023-03-22T08:35:24;10.30;99.90
45207;DHT22;30950;53.086;21.576;2023-03-22T08:37:55;10.30;99.90
45207;DHT22;30950;53.086;21.576;2023-03-22T08:40:29;10.50;99.90
45207;DHT22;30950;53.086;21.576;2023-03-22T08:42:59;10.60;99.90
45207;DHT22;30950;53.086;21.576;2023-03-22T08:45:29;10.70;99.90
45207;DHT22;30950;53.086;21.576;2023-03-22T08:48:04;10.80;99.90
45207;DHT22;30950;53.086;21.576;2023-03-22T08:50:44;10.90;99.90
45207;DHT22;30950;53.086;21.576;2023-03-22T08:53:20;11.00;99.90
45207;DHT22;30950;53.086;21.576;2023-03-22T08:55:55;11.00;99.90
45207;DHT22;30950;53.086;21.576;2023-03-22T08:58:39;11.10;99.90
45207;DHT22;30950;53.086;21.576;2023-03-22T09:01:27;11.30;99.90
45207;DHT22;30950;53.086;21.576;2023-03-22T09:04:02;11.40;99.90
45207;DHT22;30950;53.086;21.576;2023-03-22T09:06:30;11.50;99.90
45207;DHT22;30950;53.086;21.576;2023-03-22T09:08:58;11.50;99.90
45207;DHT22;30950;53.086;21.576;2023-03-22T09:11:26;11.70;99.90
45207;DHT22;30950;53.086;21.576;2023-03-22T09:13:53;11.90;99.90
45207;DHT22;30950;53.086;21.576;2023-03-22T09:16:21;12.10;99.90
45207;DHT22;30950;53.086;21.576;2023-03-22T09:18:49;12.20;99.90
45207;DHT22;30950;53.086;21.576;2023-03-22T09:21:20;12.30;99.90
45207;DHT22;30950;53.086;21.576;2023-03-22T09:24:02;12.40;99.90
45207;DHT22;30950;53.086;21.576;2023-03-22T09:26:39;12.50;99.90
45207;DHT22;30950;53.086;21.576;2023-03-22T09:29:06;12.50;99.90
45207;DHT22;30950;53.086;21.576;2023-03-22T09:31:34;12.60;99.90
45207;DHT22;30950;53.086;21.576;2023-03-22T09:34:33;12.50;99.90
45207;DHT22;30950;53.086;21.576;2023-03-22T09:37:02;12.60;99.90
45207;DHT22;30950;53.086;21.576;2023-03-22T09:39:40;12.60;99.90
45207;DHT22;30950;53.086;21.576;2023-03-22T09:42:35;12.60;99.90
45207;DHT22;30950;53.086;21.576;2023-03-22T09:45:12;12.60;99.90
45207;DHT22;30950;53.086;21.576;2023-03-22T09:47:46;12.60;99.90
45207;DHT22;30950;53.086;21.576;2023-03-22T09:50:19;12.60;99.90
45207;DHT22;30950;53.086;21.576;2023-03-22T09:52:48;12.60;99.90
45207;DHT22;30950;53.086;21.576;2023-03-22T09:55:33;12.40;99.90
45207;DHT22;30950;53.086;21.576;2023-03-22T09:58:31;12.30;99.90
45207;DHT22;30950;53.086;21.576;2023-03-22T10:01:17;12.20;99.90
45207;DHT22;30950;53.086;21.576;2023-03-22T10:07:14;12.00;99.90
45207;DHT22;30950;53.086;21.576;2023-03-22T10:10:10;12.00;99.90
45207;DHT22;30950;53.086;21.576;2023-03-22T10:15:50;12.10;99.90
45207;DHT22;30950;53.086;21.576;2023-03-22T10:18:40;12.10;99.90
45207;DHT22;30950;53.086;21.576;2023-03-22T10:21:12;12.10;99.90
45207;DHT22;30950;53.086;21.576;2023-03-22T10:23:56;12.10;99.90
45207;DHT22;30950;53.086;21.576;2023-03-22T10:26:27;12.10;99.90
45207;DHT22;30950;53.086;21.576;2023-03-22T10:29:10;12.00;99.90
45207;DHT22;30950;53.086;21.576;2023-03-22T10:31:42;11.80;99.90
45207;DHT22;30950;53.086;21.576;2023-03-22T10:34:25;11.70;99.90
45207;DHT22;30950;53.086;21.576;2023-03-22T10:37:03;11.50;99.90
45207;DHT22;30950;53.086;21.576;2023-03-22T10:39:35;11.50;99.90
45207;DHT22;30950;53.086;21.576;2023-03-22T10:42:27;11.40;99.90
45207;DHT22;30950;53.086;21.576;2023-03-22T10:45:07;11.40;99.90
45207;DHT22;30950;53.086;21.576;2023-03-22T10:47:42;11.40;99.90
45207;DHT22;30950;53.086;21.576;2023-03-22T10:50:23;11.40;99.90
45207;DHT22;30950;53.086;21.576;2023-03-22T10:55:42;11.20;99.90
45207;DHT22;30950;53.086;21.576;2023-03-22T10:58:18;11.00;99.90
45207;DHT22;30950;53.086;21.576;2023-03-22T11:00:55;10.80;99.90
45207;DHT22;30950;53.086;21.576;2023-03-22T11:03:39;10.60;99.90
45207;DHT22;30950;53.086;21.576;2023-03-22T11:06:10;10.40;99.90
45207;DHT22;30950;53.086;21.576;2023-03-22T11:08:45;10.30;99.90
45207;DHT22;30950;53.086;21.576;2023-03-22T11:11:24;10.10;99.90
45207;DHT22;30950;53.086;21.576;2023-03-22T11:16:49;10.10;99.90
45207;DHT22;30950;53.086;21.576;2023-03-22T11:19:24;10.20;99.90
45207;DHT22;30950;53.086;21.576;2023-03-22T11:21:57;10.30;99.90
45207;DHT22;30950;53.086;21.576;2023-03-22T11:24:26;10.30;99.90
45207;DHT22;30950;53.086;21.576;2023-03-22T11:29:43;10.50;99.90
45207;DHT22;30950;53.086;21.576;2023-03-22T11:37:28;10.90;99.90
45207;DHT22;30950;53.086;21.576;2023-03-22T11:40:02;11.00;99.90
45207;DHT22;30950;53.086;21.576;2023-03-22T11:42:33;11.10;99.90
45207;DHT22;30950;53.086;21.576;2023-03-22T11:45:01;11.20;99.90
45207;DHT22;30950;53.086;21.576;2023-03-22T11:47:31;11.30;99.90
45207;DHT22;30950;53.086;21.576;2023-03-22T11:50:18;11.20;99.90
45207;DHT22;30950;53.086;21.576;2023-03-22T11:52:47;11.30;99.90
45207;DHT22;30950;53.086;21.576;2023-03-22T11:55:15;11.30;99.90
45207;DHT22;30950;53.086;21.576;2023-03-22T11:57:43;11.30;99.90
45207;DHT22;30950;53.086;21.576;2023-03-22T12:00:19;11.30;99.90
45207;DHT22;30950;53.086;21.576;2023-03-22T12:02:53;11.30;99.90
45207;DHT22;30950;53.086;21.576;2023-03-22T12:05:25;11.20;99.90
45207;DHT22;30950;53.086;21.576;2023-03-22T12:08:08;11.20;99.90
45207;DHT22;30950;53.086;21.576;2023-03-22T12:10:42;11.30;99.90
45207;DHT22;30950;53.086;21.576;2023-03-22T12:15:54;11.30;99.90
45207;DHT22;30950;53.086;21.576;2023-03-22T12:20:57;11.30;99.90
45207;DHT22;30950;53.086;21.576;2023-03-22T12:23:28;11.40;99.90
45207;DHT22;30950;53.086;21.576;2023-03-22T12:25:56;11.40;99.90
45207;DHT22;30950;53.086;21.576;2023-03-22T12:28:34;11.40;99.90
45207;DHT22;30950;53.086;21.576;2023-03-22T12:31:05;11.50;99.90
45207;DHT22;30950;53.086;21.576;2023-03-22T12:33:46;11.50;99.90
45207;DHT22;30950;53.086;21.576;2023-03-22T12:36:27;11.50;99.90
45207;DHT22;30950;53.086;21.576;2023-03-22T12:38:57;11.50;99.90
45207;DHT22;30950;53.086;21.576;2023-03-22T12:41:46;11.50;99.90
45207;DHT22;30950;53.086;21.576;2023-03-22T12:44:25;11.50;99.90
45207;DHT22;30950;53.086;21.576;2023-03-22T12:52:47;11.50;99.90
45207;DHT22;30950;53.086;21.576;2023-03-22T12:55:31;11.50;99.90
45207;DHT22;30950;53.086;21.576;2023-03-22T12:57:59;11.50;99.90
45207;DHT22;30950;53.086;21.576;2023-03-22T13:05:47;11.50;99.90
45207;DHT22;30950;53.086;21.576;2023-03-22T13:08:21;11.50;99.90
45207;DHT22;30950;53.086;21.576;2023-03-22T13:11:14;11.50;99.90
45207;DHT22;30950;53.086;21.576;2023-03-22T13:13:45;11.50;99.90
45207;DHT22;30950;53.086;21.576;2023-03-22T13:16:18;11.40;99.90
45207;DHT22;30950;53.086;21.576;2023-03-22T13:26:45;11.40;99.90
45207;DHT22;30950;53.086;21.576;2023-03-22T13:32:00;11.40;99.90
45207;DHT22;30950;53.086;21.576;2023-03-22T13:34:46;11.50;99.90
45207;DHT22;30950;53.086;21.576;2023-03-22T13:37:33;11.50;99.90
45207;DHT22;30950;53.086;21.576;2023-03-22T13:43:32;11.60;99.90
45207;DHT22;30950;53.086;21.576;2023-03-22T13:53:55;12.00;99.90
45207;DHT22;30950;53.086;21.576;2023-03-22T13:59:01;12.10;99.90
45207;DHT22;30950;53.086;21.576;2023-03-22T14:01:32;12.10;99.90
45207;DHT22;30950;53.086;21.576;2023-03-22T14:04:06;12.10;99.90
45207;DHT22;30950;53.086;21.576;2023-03-22T14:09:49;12.10;99.90
45207;DHT22;30950;53.086;21.576;2023-03-22T14:12:24;12.20;99.90
45207;DHT22;30950;53.086;21.576;2023-03-22T14:14:59;12.20;99.90
45207;DHT22;30950;53.086;21.576;2023-03-22T14:17:48;12.20;99.90
45207;DHT22;30950;53.086;21.576;2023-03-22T14:20:20;12.30;99.90
45207;DHT22;30950;53.086;21.576;2023-03-22T14:22:56;12.20;99.90
45207;DHT22;30950;53.086;21.576;2023-03-22T14:25:26;12.20;99.90
45207;DHT22;30950;53.086;21.576;2023-03-22T14:27:54;12.20;99.90
45207;DHT22;30950;53.086;21.576;2023-03-22T14:33:03;12.30;99.90
45207;DHT22;30950;53.086;21.576;2023-03-22T14:35:38;12.50;99.90
45207;DHT22;30950;53.086;21.576;2023-03-22T14:38:08;12.40;99.90
45207;DHT22;30950;53.086;21.576;2023-03-22T14:40:38;12.50;99.90
45207;DHT22;30950;53.086;21.576;2023-03-22T14:43:23;12.50;99.90
45207;DHT22;30950;53.086;21.576;2023-03-22T14:45:59;12.60;99.90
45207;DHT22;30950;53.086;21.576;2023-03-22T14:48:31;12.60;99.90
45207;DHT22;30950;53.086;21.576;2023-03-22T14:51:01;12.60;99.90
45207;DHT22;30950;53.086;21.576;2023-03-22T14:53:33;12.60;99.90
45207;DHT22;30950;53.086;21.576;2023-03-22T14:56:48;12.60;99.90
45207;DHT22;30950;53.086;21.576;2023-03-22T14:58:51;12.60;99.90
45207;DHT22;30950;53.086;21.576;2023-03-22T15:01:25;12.60;99.90
45207;DHT22;30950;53.086;21.576;2023-03-22T15:04:03;12.60;99.90
45207;DHT22;30950;53.086;21.576;2023-03-22T15:06:30;12.70;99.90
45207;DHT22;30950;53.086;21.576;2023-03-22T15:09:07;12.70;99.90
45207;DHT22;30950;53.086;21.576;2023-03-22T15:11:35;12.70;99.90
45207;DHT22;30950;53.086;21.576;2023-03-22T15:14:02;12.70;99.90
45207;DHT22;30950;53.086;21.576;2023-03-22T15:16:31;12.90;99.90
45207;DHT22;30950;53.086;21.576;2023-03-22T15:18:59;12.80;99.90
45207;DHT22;30950;53.086;21.576;2023-03-22T15:21:26;12.70;99.90
45207;DHT22;30950;53.086;21.576;2023-03-22T15:23:55;12.70;99.90
45207;DHT22;30950;53.086;21.576;2023-03-22T15:26:25;12.70;99.90
45207;DHT22;30950;53.086;21.576;2023-03-22T15:28:56;12.70;99.90
45207;DHT22;30950;53.086;21.576;2023-03-22T15:31:28;12.70;99.90
45207;DHT22;30950;53.086;21.576;2023-03-22T15:34:00;12.60;99.90
45207;DHT22;30950;53.086;21.576;2023-03-22T15:36:31;12.60;99.90
45207;DHT22;30950;53.086;21.576;2023-03-22T15:39:24;12.60;99.90
45207;DHT22;30950;53.086;21.576;2023-03-22T15:41:54;12.60;99.90
45207;DHT22;30950;53.086;21.576;2023-03-22T15:49:34;12.50;99.90
45207;DHT22;30950;53.086;21.576;2023-03-22T15:57:18;12.40;99.90
45207;DHT22;30950;53.086;21.576;2023-03-22T15:59:51;12.50;99.90
45207;DHT22;30950;53.086;21.576;2023-03-22T16:02:31;12.40;99.90
45207;DHT22;30950;53.086;21.576;2023-03-22T16:04:58;12.40;99.90
45207;DHT22;30950;53.086;21.576;2023-03-22T16:07:27;12.40;99.90
45207;DHT22;30950;53.086;21.576;2023-03-22T16:09:55;12.40;99.90
45207;DHT22;30950;53.086;21.576;2023-03-22T16:12:22;12.50;99.90
45207;DHT22;30950;53.086;21.576;2023-03-22T16:14:49;12.40;99.90
45207;DHT22;30950;53.086;21.576;2023-03-22T16:17:22;12.40;99.90
45207;DHT22;30950;53.086;21.576;2023-03-22T16:19:49;12.40;99.90
45207;DHT22;30950;53.086;21.576;2023-03-22T16:22:17;12.40;99.90
45207;DHT22;30950;53.086;21.576;2023-03-22T16:24:44;12.40;99.90
45207;DHT22;30950;53.086;21.576;2023-03-22T16:27:15;12.40;99.90
45207;DHT22;30950;53.086;21.576;2023-03-22T16:29:42;12.30;99.90
45207;DHT22;30950;53.086;21.576;2023-03-22T16:32:14;12.30;99.90
45207;DHT22;30950;53.086;21.576;2023-03-22T16:34:41;12.30;99.90
45207;DHT22;30950;53.086;21.576;2023-03-22T16:37:17;12.30;99.90
45207;DHT22;30950;53.086;21.576;2023-03-22T16:39:44;12.30;99.90
45207;DHT22;30950;53.086;21.576;2023-03-22T16:42:15;12.30;99.90
45207;DHT22;30950;53.086;21.576;2023-03-22T16:44:43;12.30;99.90
45207;DHT22;30950;53.086;21.576;2023-03-22T16:47:18;12.30;99.90
45207;DHT22;30950;53.086;21.576;2023-03-22T16:49:45;12.30;99.90
45207;DHT22;30950;53.086;21.576;2023-03-22T16:52:16;12.20;99.90
45207;DHT22;30950;53.086;21.576;2023-03-22T16:54:43;12.20;99.90
45207;DHT22;30950;53.086;21.576;2023-03-22T16:57:19;12.20;99.90
45207;DHT22;30950;53.086;21.576;2023-03-22T16:59:46;12.20;99.90
45207;DHT22;30950;53.086;21.576;2023-03-22T17:02:33;12.20;99.90
45207;DHT22;30950;53.086;21.576;2023-03-22T17:04:59;12.10;99.90
45207;DHT22;30950;53.086;21.576;2023-03-22T17:07:30;12.10;99.90
45207;DHT22;30950;53.086;21.576;2023-03-22T17:09:58;12.10;99.90
45207;DHT22;30950;53.086;21.576;2023-03-22T17:12:26;12.10;99.90
45207;DHT22;30950;53.086;21.576;2023-03-22T17:14:56;12.00;99.90
45207;DHT22;30950;53.086;21.576;2023-03-22T17:17:23;12.00;99.90
45207;DHT22;30950;53.086;21.576;2023-03-22T17:19:53;12.00;99.90
45207;DHT22;30950;53.086;21.576;2023-03-22T17:22:20;12.00;99.90
45207;DHT22;30950;53.086;21.576;2023-03-22T17:24:47;12.00;99.90
45207;DHT22;30950;53.086;21.576;2023-03-22T17:27:13;12.00;99.90
45207;DHT22;30950;53.086;21.576;2023-03-22T17:29:39;11.90;99.90
45207;DHT22;30950;53.086;21.576;2023-03-22T17:32:10;11.90;99.90
45207;DHT22;30950;53.086;21.576;2023-03-22T17:34:39;11.90;99.90
45207;DHT22;30950;53.086;21.576;2023-03-22T17:37:06;11.90;99.90
45207;DHT22;30950;53.086;21.576;2023-03-22T17:39:34;12.40;99.90
45207;DHT22;30950;53.086;21.576;2023-03-22T17:42:12;12.00;99.90
45207;DHT22;30950;53.086;21.576;2023-03-22T17:44:38;11.90;99.90
45207;DHT22;30950;53.086;21.576;2023-03-22T17:47:05;11.80;99.90
45207;DHT22;30950;53.086;21.576;2023-03-22T17:49:32;11.80;99.90
45207;DHT22;30950;53.086;21.576;2023-03-22T17:51:58;11.80;99.90
45207;DHT22;30950;53.086;21.576;2023-03-22T17:54:25;11.70;99.90
45207;DHT22;30950;53.086;21.576;2023-03-22T17:56:51;11.70;99.90